createdAt,value
2022-12-29T00:02:21.473Z,99.90
2022-12-29T00:04:50.037Z,99.90
2022-12-29T00:07:17.452Z,99.90
2022-12-29T00:09:45.175Z,99.90
2022-12-29T00:12:12.476Z,99.90
2022-12-29T00:14:58.156Z,99.90
2022-12-29T00:17:25.244Z,99.90
2022-12-29T00:20:10.675Z,99.90
2022-12-29T00:22:55.983Z,99.90
2022-12-29T00:25:41.441Z,99.90
2022-12-29T00:28:30.159Z,99.90
2022-12-29T00:31:21.828Z,99.90
2022-12-29T00:34:07.259Z,99.90
2022-12-29T00:36:39.630Z,99.90
2022-12-29T00:39:35.663Z,99.90
2022-12-29T00:42:26.889Z,99.90
2022-12-29T00:44:53.891Z,99.90
2022-12-29T00:47:20.966Z,99.90
2022-12-29T00:49:48.014Z,99.90
2022-12-29T00:52:17.744Z,99.90
2022-12-29T00:54:46.023Z,99.90
2022-12-29T00:57:13.560Z,99.90
2022-12-29T00:59:41.251Z,99.90
2022-12-29T01:02:08.318Z,99.90
2022-12-29T01:04:35.650Z,99.90
2022-12-29T01:07:02.633Z,99.90
2022-12-29T01:09:48.014Z,99.90
2022-12-29T01:12:15.113Z,99.90
2022-12-29T01:14:42.135Z,99.90
2022-12-29T01:17:09.187Z,99.90
2022-12-29T01:19:36.157Z,99.90
2022-12-29T01:22:03.233Z,99.90
2022-12-29T01:24:30.268Z,99.90
2022-12-29T01:26:57.338Z,99.90
2022-12-29T01:29:27.520Z,99.90
2022-12-29T01:31:54.471Z,99.90
2022-12-29T01:34:24.188Z,99.90
2022-12-29T01:36:51.079Z,99.90
2022-12-29T01:39:18.044Z,99.90
2022-12-29T01:41:45.229Z,99.90
2022-12-29T01:44:49.912Z,99.90
2022-12-29T01:47:33.962Z,99.90
2022-12-29T01:50:07.753Z,99.90
2022-12-29T01:52:35.577Z,99.90
2022-12-29T01:55:03.105Z,99.90
2022-12-29T01:57:32.830Z,99.90
2022-12-29T02:00:09.812Z,99.90
2022-12-29T02:02:40.171Z,99.90
2022-12-29T02:05:35.070Z,99.90
2022-12-29T02:08:02.199Z,99.90
2022-12-29T02:10:30.940Z,99.90
2022-12-29T02:12:57.950Z,99.90
2022-12-29T02:15:35.411Z,99.90
2022-12-29T02:18:25.776Z,99.90
2022-12-29T02:21:48.599Z,99.90
2022-12-29T02:25:03.451Z,99.90
2022-12-29T02:27:46.229Z,99.90
2022-12-29T02:30:58.000Z,99.90
2022-12-29T02:33:53.494Z,99.90
2022-12-29T02:37:07.764Z,99.90
2022-12-29T02:39:53.454Z,99.90
2022-12-29T02:43:06.958Z,99.90
2022-12-29T02:45:58.339Z,99.90
2022-12-29T02:48:29.507Z,99.90
2022-12-29T02:51:22.423Z,99.90
2022-12-29T02:54:07.825Z,99.90
2022-12-29T02:56:34.865Z,99.90
2022-12-29T02:59:02.523Z,99.90
2022-12-29T03:02:02.834Z,99.90
2022-12-29T03:05:11.264Z,99.90
2022-12-29T03:07:52.145Z,99.90
2022-12-29T03:10:32.957Z,99.90
2022-12-29T03:13:39.211Z,99.90
2022-12-29T03:16:13.673Z,99.90
2022-12-29T03:19:04.035Z,99.90
2022-12-29T03:22:06.011Z,99.90
2022-12-29T03:24:41.573Z,99.90
2022-12-29T03:27:10.281Z,99.90
2022-12-29T03:29:42.135Z,99.90
2022-12-29T03:32:09.543Z,99.90
2022-12-29T03:34:36.826Z,99.90
2022-12-29T03:37:12.622Z,99.90
2022-12-29T03:39:39.924Z,99.90
2022-12-29T03:42:08.289Z,99.90
2022-12-29T03:44:41.169Z,99.90
2022-12-29T03:47:10.851Z,99.90
2022-12-29T03:49:40.892Z,99.90
2022-12-29T03:52:08.963Z,99.90
2022-12-29T03:54:42.030Z,99.90
2022-12-29T03:57:10.216Z,99.90
2022-12-29T03:59:47.507Z,99.90
2022-12-29T04:02:14.825Z,99.90
2022-12-29T04:04:42.258Z,99.90
2022-12-29T04:07:10.302Z,99.90
2022-12-29T04:09:37.822Z,99.90
2022-12-29T04:12:05.154Z,99.90
2022-12-29T04:14:34.482Z,99.90
2022-12-29T04:17:06.761Z,99.90
2022-12-29T04:19:34.408Z,99.90
2022-12-29T04:22:01.675Z,99.90
2022-12-29T04:24:31.422Z,99.90
2022-12-29T04:27:01.159Z,99.90
2022-12-29T04:29:48.328Z,99.90
2022-12-29T04:32:44.413Z,99.90
2022-12-29T04:35:11.463Z,99.90
2022-12-29T04:37:38.548Z,99.90
2022-12-29T04:40:06.096Z,99.90
2022-12-29T04:42:33.116Z,99.90
2022-12-29T04:45:00.631Z,99.90
2022-12-29T04:47:57.151Z,99.90
2022-12-29T04:50:35.668Z,99.90
2022-12-29T04:53:14.867Z,99.90
2022-12-29T04:55:43.157Z,99.90
2022-12-29T04:58:10.290Z,99.90
2022-12-29T05:00:37.577Z,99.90
2022-12-29T05:03:06.169Z,99.90
2022-12-29T05:05:36.082Z,99.90
2022-12-29T05:08:03.103Z,99.90
2022-12-29T05:10:30.982Z,99.90
2022-12-29T05:13:01.919Z,99.90
2022-12-29T05:15:29.336Z,99.90
2022-12-29T05:17:56.354Z,99.90
2022-12-29T05:20:23.549Z,99.90
2022-12-29T05:22:51.046Z,99.90
2022-12-29T05:25:18.171Z,99.90
2022-12-29T05:27:54.172Z,99.90
2022-12-29T05:30:40.509Z,99.90
2022-12-29T05:33:07.696Z,99.90
2022-12-29T05:35:35.427Z,99.90
2022-12-29T05:38:02.580Z,99.90
2022-12-29T05:40:29.592Z,99.90
2022-12-29T05:43:00.769Z,99.90
2022-12-29T05:45:40.169Z,99.90
2022-12-29T05:48:26.183Z,99.90
2022-12-29T05:51:16.164Z,99.90
2022-12-29T05:53:50.187Z,99.90
2022-12-29T05:56:18.135Z,99.90
2022-12-29T05:58:50.633Z,99.90
2022-12-29T06:01:20.204Z,99.90
2022-12-29T06:03:48.616Z,99.90
2022-12-29T06:06:17.071Z,99.90
2022-12-29T06:08:44.557Z,99.90
2022-12-29T06:11:11.609Z,99.90
2022-12-29T06:13:44.597Z,99.90
2022-12-29T06:16:12.783Z,99.90
2022-12-29T06:18:40.208Z,99.90
2022-12-29T06:21:09.092Z,99.90
2022-12-29T06:23:36.723Z,99.90
2022-12-29T06:26:05.013Z,99.90
2022-12-29T06:28:33.222Z,99.90
2022-12-29T06:31:03.148Z,99.90
2022-12-29T06:33:30.707Z,99.90
2022-12-29T06:35:59.766Z,99.90
2022-12-29T06:38:26.680Z,99.90
2022-12-29T06:40:53.625Z,99.90
2022-12-29T06:43:21.720Z,99.90
2022-12-29T06:45:50.635Z,99.90
2022-12-29T06:48:17.654Z,99.90
2022-12-29T06:50:44.667Z,99.90
2022-12-29T06:53:11.656Z,99.90
2022-12-29T06:55:39.691Z,99.90
2022-12-29T06:58:06.808Z,99.90
2022-12-29T07:00:33.972Z,99.90
2022-12-29T07:03:01.022Z,99.90
2022-12-29T07:05:28.757Z,99.90
2022-12-29T07:07:56.319Z,99.90
2022-12-29T07:10:23.545Z,99.90
2022-12-29T07:12:50.752Z,99.90
2022-12-29T07:15:17.818Z,99.90
2022-12-29T07:17:44.940Z,99.90
2022-12-29T07:20:12.051Z,99.90
2022-12-29T07:22:40.978Z,99.90
2022-12-29T07:25:08.427Z,99.90
2022-12-29T07:27:35.551Z,99.90
2022-12-29T07:30:02.729Z,99.90
2022-12-29T07:32:29.638Z,99.90
2022-12-29T07:34:56.541Z,99.90
2022-12-29T07:37:26.557Z,99.90
2022-12-29T07:39:53.453Z,99.90
2022-12-29T07:42:20.454Z,99.90
2022-12-29T07:44:51.767Z,99.90
2022-12-29T07:47:37.129Z,99.90
2022-12-29T07:50:04.496Z,99.90
2022-12-29T07:52:31.426Z,99.90
2022-12-29T07:54:58.473Z,99.90
2022-12-29T07:57:32.081Z,99.90
2022-12-29T07:59:59.643Z,99.90
2022-12-29T08:02:27.612Z,99.90
2022-12-29T08:04:54.856Z,99.90
2022-12-29T08:07:22.018Z,99.90
2022-12-29T08:09:51.522Z,99.90
2022-12-29T08:12:18.855Z,99.90
2022-12-29T08:14:45.851Z,99.90
2022-12-29T08:17:12.806Z,99.90
2022-12-29T08:19:42.197Z,99.90
2022-12-29T08:22:11.110Z,99.90
2022-12-29T08:24:38.019Z,99.90
2022-12-29T08:27:13.349Z,99.90
2022-12-29T08:29:43.145Z,99.90
2022-12-29T08:32:10.187Z,99.90
2022-12-29T08:34:37.085Z,99.90
2022-12-29T08:37:04.036Z,99.90
2022-12-29T08:39:31.258Z,99.90
2022-12-29T08:41:58.296Z,99.90
2022-12-29T08:44:28.572Z,99.90
2022-12-29T08:46:58.171Z,99.90
2022-12-29T08:49:37.021Z,99.90
2022-12-29T08:52:04.583Z,99.90
2022-12-29T08:54:33.885Z,99.90
2022-12-29T08:57:08.852Z,99.90
2022-12-29T08:59:42.498Z,99.90
2022-12-29T09:02:18.798Z,99.90
2022-12-29T09:04:52.588Z,99.90
2022-12-29T09:07:19.818Z,99.90
2022-12-29T09:09:48.860Z,99.90
2022-12-29T09:12:17.477Z,99.90
2022-12-29T09:14:45.239Z,99.90
2022-12-29T09:17:30.790Z,99.90
2022-12-29T09:19:57.749Z,99.90
2022-12-29T09:22:24.805Z,99.90
2022-12-29T09:24:51.749Z,99.90
2022-12-29T09:27:18.723Z,99.90
2022-12-29T09:29:50.775Z,99.90
2022-12-29T09:32:18.776Z,99.90
2022-12-29T09:34:46.306Z,99.90
2022-12-29T09:37:16.312Z,99.90
2022-12-29T09:39:47.854Z,99.90
2022-12-29T09:42:29.505Z,99.90
2022-12-29T09:44:59.732Z,99.90
2022-12-29T09:47:26.677Z,99.90
2022-12-29T09:49:54.995Z,99.90
2022-12-29T09:52:26.832Z,99.90
2022-12-29T09:55:13.492Z,99.90
2022-12-29T09:58:04.632Z,99.90
2022-12-29T10:00:55.637Z,99.90
2022-12-29T10:03:23.678Z,99.90
2022-12-29T10:05:56.395Z,99.90
2022-12-29T10:08:33.119Z,99.90
2022-12-29T10:11:05.527Z,99.90
2022-12-29T10:13:53.805Z,99.90
2022-12-29T10:16:51.074Z,99.90
2022-12-29T10:19:24.899Z,99.90
2022-12-29T10:22:18.217Z,99.90
2022-12-29T10:24:49.169Z,99.90
2022-12-29T10:27:16.821Z,99.90
2022-12-29T10:29:59.686Z,99.90
2022-12-29T10:32:33.108Z,99.90
2022-12-29T10:35:24.922Z,99.90
2022-12-29T10:38:31.249Z,99.90
2022-12-29T10:41:10.195Z,99.90
2022-12-29T10:43:43.845Z,99.90
2022-12-29T10:46:13.482Z,99.90
2022-12-29T10:48:40.827Z,99.90
2022-12-29T10:51:09.472Z,99.90
2022-12-29T10:53:39.550Z,99.90
2022-12-29T10:56:39.043Z,99.90
2022-12-29T10:59:32.754Z,99.90
2022-12-29T11:02:14.652Z,99.90
2022-12-29T11:05:09.968Z,99.90
2022-12-29T11:07:36.925Z,99.90
2022-12-29T11:10:24.317Z,99.90
2022-12-29T11:13:02.352Z,99.90
2022-12-29T11:15:39.124Z,99.90
2022-12-29T11:18:08.959Z,99.90
2022-12-29T11:20:39.613Z,99.90
2022-12-29T11:23:26.309Z,99.90
2022-12-29T11:26:11.559Z,99.90
2022-12-29T11:28:39.232Z,99.90
2022-12-29T11:31:07.461Z,99.90
2022-12-29T11:33:41.883Z,99.90
2022-12-29T11:36:09.611Z,99.90
2022-12-29T11:38:38.384Z,99.90
2022-12-29T11:41:05.777Z,99.90
2022-12-29T11:43:38.259Z,99.90
2022-12-29T11:46:05.477Z,99.90
2022-12-29T11:48:40.510Z,99.90
2022-12-29T11:51:07.803Z,99.90
2022-12-29T11:53:48.794Z,99.90
2022-12-29T11:56:39.922Z,99.90
2022-12-29T11:59:32.534Z,99.90
2022-12-29T12:01:59.991Z,99.90
2022-12-29T12:04:30.102Z,99.90
2022-12-29T12:07:11.155Z,99.90
2022-12-29T12:10:00.195Z,99.90
2022-12-29T12:12:37.026Z,98.10
2022-12-29T12:15:04.359Z,97.70
2022-12-29T12:18:06.432Z,97.60
2022-12-29T12:20:43.700Z,96.90
2022-12-29T12:23:16.405Z,95.80
2022-12-29T12:26:06.025Z,95.80
2022-12-29T12:28:40.955Z,94.50
2022-12-29T12:31:20.525Z,94.00
2022-12-29T12:33:49.217Z,94.50
2022-12-29T12:36:37.617Z,92.60
2022-12-29T12:39:18.244Z,93.50
2022-12-29T12:42:06.734Z,93.40
2022-12-29T12:44:55.618Z,93.00
2022-12-29T12:47:26.135Z,92.50
2022-12-29T12:50:02.411Z,92.00
2022-12-29T12:52:48.233Z,91.50
2022-12-29T12:55:47.718Z,90.50
2022-12-29T12:58:27.081Z,90.10
2022-12-29T13:01:05.861Z,89.20
2022-12-29T13:03:58.245Z,89.00
2022-12-29T13:06:49.144Z,85.60
2022-12-29T13:09:46.937Z,85.50
2022-12-29T13:12:29.560Z,84.00
2022-12-29T13:14:56.575Z,83.30
2022-12-29T13:17:31.618Z,85.20
2022-12-29T13:20:04.384Z,84.60
2022-12-29T13:22:50.565Z,83.90
2022-12-29T13:25:39.001Z,81.80
2022-12-29T13:28:23.819Z,82.00
2022-12-29T13:31:14.269Z,83.10
2022-12-29T13:33:47.209Z,82.00
2022-12-29T13:36:30.453Z,82.30
2022-12-29T13:39:03.473Z,79.70
2022-12-29T13:41:45.531Z,80.00
2022-12-29T13:44:21.330Z,79.90
2022-12-29T13:46:48.361Z,77.80
2022-12-29T13:49:23.182Z,77.70
2022-12-29T13:51:54.513Z,76.10
2022-12-29T13:54:40.202Z,75.60
2022-12-29T13:57:31.159Z,75.70
2022-12-29T14:00:00.981Z,74.10
2022-12-29T14:02:46.466Z,75.50
2022-12-29T14:05:22.272Z,76.20
2022-12-29T14:07:50.338Z,75.00
2022-12-29T14:10:40.071Z,75.20
2022-12-29T14:13:17.616Z,72.60
2022-12-29T14:15:46.777Z,74.60
2022-12-29T14:18:16.850Z,74.00
2022-12-29T14:20:50.000Z,72.70
2022-12-29T14:23:37.194Z,71.40
2022-12-29T14:26:07.116Z,71.30
2022-12-29T14:28:35.435Z,71.30
2022-12-29T14:31:19.974Z,72.90
2022-12-29T14:34:08.426Z,72.80
2022-12-29T14:36:39.796Z,73.80
2022-12-29T14:39:42.222Z,74.00
2022-12-29T14:42:12.955Z,74.70
2022-12-29T14:45:00.195Z,76.40
2022-12-29T14:47:37.306Z,75.10
2022-12-29T14:50:35.823Z,76.40
2022-12-29T14:53:07.215Z,76.60
2022-12-29T14:55:54.902Z,74.90
2022-12-29T14:58:23.609Z,76.00
2022-12-29T15:00:50.669Z,74.50
2022-12-29T15:03:30.674Z,74.80
2022-12-29T15:06:09.686Z,74.70
2022-12-29T15:08:40.593Z,74.80
2022-12-29T15:11:13.245Z,74.00
2022-12-29T15:13:42.733Z,74.70
2022-12-29T15:16:26.641Z,72.80
2022-12-29T15:18:54.287Z,73.40
2022-12-29T15:21:37.039Z,73.40
2022-12-29T15:24:04.705Z,73.20
2022-12-29T15:26:41.604Z,72.80
2022-12-29T15:29:33.644Z,72.00
2022-12-29T15:32:02.166Z,71.40
2022-12-29T15:34:32.398Z,72.40
2022-12-29T15:37:00.549Z,71.80
2022-12-29T15:39:31.588Z,73.00
2022-12-29T15:42:07.450Z,71.70
2022-12-29T15:44:38.638Z,71.70
2022-12-29T15:47:06.628Z,71.30
2022-12-29T15:49:33.671Z,71.10
2022-12-29T15:52:00.650Z,71.60
2022-12-29T15:54:28.936Z,72.00
2022-12-29T15:56:55.889Z,72.10
2022-12-29T15:59:30.644Z,73.20
2022-12-29T16:01:58.327Z,71.70
2022-12-29T16:04:30.437Z,72.20
2022-12-29T16:06:57.705Z,72.00
2022-12-29T16:09:35.999Z,71.10
2022-12-29T16:12:07.473Z,71.30
2022-12-29T16:14:46.022Z,71.30
2022-12-29T16:17:21.913Z,71.70
2022-12-29T16:20:03.915Z,71.50
2022-12-29T16:22:34.733Z,71.90
2022-12-29T16:25:05.128Z,72.30
2022-12-29T16:27:42.349Z,73.10
2022-12-29T16:30:31.037Z,72.50
2022-12-29T16:33:05.007Z,73.50
2022-12-29T16:35:46.960Z,74.30
2022-12-29T16:38:14.635Z,73.60
2022-12-29T16:41:05.668Z,73.30
2022-12-29T16:43:35.635Z,73.70
2022-12-29T16:46:02.658Z,73.60
2022-12-29T16:48:31.171Z,73.90
2022-12-29T16:51:18.022Z,74.20
2022-12-29T16:53:54.923Z,74.30
2022-12-29T16:56:28.141Z,75.10
2022-12-29T16:59:24.523Z,77.10
2022-12-29T17:01:51.620Z,76.50
2022-12-29T17:04:18.709Z,77.30
2022-12-29T17:06:45.938Z,78.30
2022-12-29T17:09:19.596Z,78.30
2022-12-29T17:12:04.992Z,79.10
2022-12-29T17:14:40.800Z,79.80
2022-12-29T17:17:31.906Z,80.60
2022-12-29T17:20:07.775Z,81.10
2022-12-29T17:22:34.836Z,81.50
2022-12-29T17:25:02.979Z,81.00
2022-12-29T17:27:53.919Z,80.90
2022-12-29T17:30:28.410Z,80.70
2022-12-29T17:32:58.926Z,81.50
2022-12-29T17:35:26.477Z,82.40
2022-12-29T17:37:53.523Z,82.50
2022-12-29T17:40:27.906Z,81.80
2022-12-29T17:42:56.293Z,81.80
2022-12-29T17:45:27.998Z,82.30
2022-12-29T17:47:55.250Z,82.80
2022-12-29T17:50:25.833Z,83.30
2022-12-29T17:53:00.788Z,83.40
2022-12-29T17:55:34.590Z,83.90
2022-12-29T17:58:27.476Z,84.40
2022-12-29T18:00:59.794Z,84.90
2022-12-29T18:03:29.194Z,85.00
2022-12-29T18:05:57.129Z,84.70
2022-12-29T18:08:24.038Z,85.10
2022-12-29T18:10:51.994Z,85.00
2022-12-29T18:13:25.908Z,85.10
2022-12-29T18:15:55.188Z,85.30
2022-12-29T18:18:26.536Z,86.00
2022-12-29T18:20:56.619Z,86.10
2022-12-29T18:23:28.590Z,87.40
2022-12-29T18:25:56.909Z,87.20
2022-12-29T18:28:25.036Z,86.70
2022-12-29T18:30:52.604Z,86.60
2022-12-29T18:33:23.345Z,87.20
2022-12-29T18:35:59.841Z,87.50
2022-12-29T18:38:27.273Z,88.40
2022-12-29T18:40:54.587Z,89.20
2022-12-29T18:43:22.712Z,89.60
2022-12-29T18:45:49.766Z,89.70
2022-12-29T18:48:17.865Z,90.20
2022-12-29T18:50:45.233Z,90.40
2022-12-29T18:53:24.798Z,90.60
2022-12-29T18:55:52.806Z,90.90
2022-12-29T18:58:20.920Z,91.10
2022-12-29T19:00:49.014Z,91.30
2022-12-29T19:03:17.350Z,91.30
2022-12-29T19:05:45.788Z,91.70
2022-12-29T19:08:13.299Z,91.70
2022-12-29T19:10:44.085Z,91.80
2022-12-29T19:13:24.194Z,92.00
2022-12-29T19:15:51.601Z,92.00
2022-12-29T19:19:05.736Z,92.10
2022-12-29T19:21:24.558Z,92.30
2022-12-29T19:23:51.983Z,92.40
2022-12-29T19:26:29.840Z,92.50
2022-12-29T19:28:57.127Z,92.50
2022-12-29T19:31:24.412Z,92.80
2022-12-29T19:33:51.540Z,92.90
2022-12-29T19:36:19.019Z,93.00
2022-12-29T19:38:46.467Z,93.10
2022-12-29T19:41:14.208Z,93.20
2022-12-29T19:43:41.173Z,93.60
2022-12-29T19:46:14.088Z,93.60
2022-12-29T19:48:41.195Z,93.50
2022-12-29T19:51:09.959Z,93.60
2022-12-29T19:53:37.159Z,93.70
2022-12-29T19:56:05.323Z,93.50
2022-12-29T19:58:33.391Z,93.70
2022-12-29T20:01:09.346Z,94.00
2022-12-29T20:03:36.635Z,94.00
2022-12-29T20:06:04.202Z,94.20
2022-12-29T20:08:31.239Z,94.20
2022-12-29T20:11:07.819Z,94.00
2022-12-29T20:13:35.230Z,94.20
2022-12-29T20:16:07.114Z,94.00
2022-12-29T20:18:35.686Z,94.20
2022-12-29T20:21:07.241Z,94.40
2022-12-29T20:23:34.663Z,94.40
2022-12-29T20:26:01.976Z,94.50
2022-12-29T20:28:29.391Z,94.90
2022-12-29T20:31:06.527Z,95.20
2022-12-29T20:33:34.359Z,95.50
2022-12-29T20:36:28.700Z,95.60
2022-12-29T20:38:56.669Z,96.50
2022-12-29T20:41:23.671Z,96.70
2022-12-29T20:43:51.026Z,96.90
2022-12-29T20:46:21.361Z,97.50
2022-12-29T20:48:49.417Z,97.70
2022-12-29T20:51:16.587Z,98.20
2022-12-29T20:53:43.683Z,98.80
2022-12-29T20:56:15.428Z,99.10
2022-12-29T20:59:08.543Z,99.60
2022-12-29T21:01:29.580Z,99.90
2022-12-29T21:03:56.626Z,99.90
2022-12-29T21:06:23.608Z,99.90
2022-12-29T21:08:51.068Z,99.90
2022-12-29T21:11:18.545Z,99.90
2022-12-29T21:13:45.640Z,99.90
2022-12-29T21:16:13.216Z,99.90
2022-12-29T21:18:40.402Z,99.90
2022-12-29T21:21:08.993Z,99.90
2022-12-29T21:23:38.453Z,99.90
2022-12-29T21:26:13.292Z,99.90
2022-12-29T21:28:40.471Z,99.90
2022-12-29T21:31:09.068Z,99.90
2022-12-29T21:33:37.576Z,99.90
2022-12-29T21:36:06.150Z,99.90
2022-12-29T21:38:33.202Z,99.90
2022-12-29T21:41:10.990Z,99.90
2022-12-29T21:43:38.028Z,99.90
2022-12-29T21:46:06.245Z,99.90
2022-12-29T21:48:33.784Z,99.90
2022-12-29T21:51:31.053Z,99.90
2022-12-29T21:54:19.555Z,99.90
2022-12-29T21:56:47.235Z,99.90
2022-12-29T21:59:34.331Z,99.90
2022-12-29T22:02:20.440Z,99.90
2022-12-29T22:05:06.104Z,99.90
2022-12-29T22:07:51.884Z,99.90
2022-12-29T22:10:37.194Z,99.90
2022-12-29T22:13:04.317Z,99.90
2022-12-29T22:15:36.567Z,99.90
2022-12-29T22:18:04.030Z,99.90
2022-12-29T22:20:32.471Z,99.90
2022-12-29T22:22:59.566Z,99.90
2022-12-29T22:25:26.568Z,99.90
2022-12-29T22:27:58.923Z,99.90
2022-12-29T22:30:27.900Z,99.90
2022-12-29T22:32:54.917Z,99.90
2022-12-29T22:35:21.866Z,99.90
2022-12-29T22:37:48.831Z,99.90
2022-12-29T22:40:16.140Z,99.90
2022-12-29T22:42:43.117Z,99.90
2022-12-29T22:45:10.494Z,99.90
2022-12-29T22:47:37.640Z,99.90
2022-12-29T22:50:04.890Z,99.90
2022-12-29T22:52:32.014Z,99.90
2022-12-29T22:55:04.565Z,99.90
2022-12-29T22:57:33.552Z,99.90
2022-12-29T23:00:00.537Z,99.90
2022-12-29T23:02:27.873Z,99.90
2022-12-29T23:05:04.114Z,99.90
2022-12-29T23:07:32.574Z,99.90
2022-12-29T23:09:59.650Z,99.90
2022-12-29T23:12:31.645Z,99.90
2022-12-29T23:14:58.622Z,99.90
2022-12-29T23:17:25.647Z,99.90
2022-12-29T23:19:53.035Z,99.90
2022-12-29T23:22:20.186Z,99.90
2022-12-29T23:24:47.148Z,99.90
2022-12-29T23:27:14.251Z,99.90
2022-12-29T23:29:41.337Z,99.90
2022-12-29T23:32:08.342Z,99.90
2022-12-29T23:34:35.491Z,99.90
2022-12-29T23:37:02.550Z,99.90
2022-12-29T23:39:29.598Z,99.90
2022-12-29T23:41:58.191Z,99.90
2022-12-29T23:44:25.247Z,99.90
2022-12-29T23:46:52.222Z,99.90
2022-12-29T23:49:19.249Z,99.90
2022-12-29T23:51:46.156Z,99.90
2022-12-29T23:54:13.105Z,99.90
2022-12-29T23:56:40.092Z,99.90
2022-12-29T23:59:07.121Z,99.90
